x

West Sea Otter (46204) Wave Buoy

5:00 - Sat 27th Aug 2016 All times are PDT. -7 hours from GMT.

  • Sig Wave height 4.3ft
  • Peak Period 7s
  • Wind
    9mph, 11mph gusts
  • Sea Temp 57°f
  • Luft Temp 58°f
  • Sea Pressure 1013.1mb
  • West Sea Otter
  • West Sea Otter

More Historic Weather Station data

Upgrade to MSW Pro to gain access to the past 30 days of data for over 8000 Wavebouys and Weather Stations around the globe.

Join Pro

Comparision Forecast

View Surf forecast
   
Sa 08/27 5:00 4.5ft 7s 9 11 mph 1013.1mb 57f 58f
4:00 4.5ft 8s 9 11 mph 1013.3mb 57f 58f
3:00 3.5ft 7s 7 9 mph 1013.3mb 57f 58f
2:00 4ft 7s 9 11 mph 1013.4mb 57f 58f
1:00 4.5ft 7s 11 13 mph 1013.3mb 57f 58f
12:00 4ft 7s 13 18 mph 1013.3mb 57f 58f
Fr 08/26 11:00 4.5ft 7s 13 16 mph 1013.6mb 57f 58f
10:00 4.5ft 7s 9 11 mph 1013.8mb 57f 58f
9:00 4.5ft 6s 11 13 mph 1013.8mb 57f 58f
8:00 5ft 7s 9 13 mph 1013.7mb 57f 58f
7:00 5ft 8s 18 20 mph 1013.9mb 57f 58f
6:00 6ft 8s 16 18 mph 1014.4mb 57f 58f
5:00 6ft 7s 18 20 mph 1015mb 58f 59f
4:00 6ft 8s 18 22 mph 1015.2mb 57f 59f
3:00 6.5ft 7s 16 18 mph 1015.7mb 57f 59f
2:00 7ft 8s 13 20 mph 1016.1mb 57f 58f
1:00 7ft 8s 18 20 mph 1016.1mb 57f 58f
12:00 8ft 8s 22 27 mph 1016mb 57f 57f
11:00 8ft 7s 18 25 mph 1016mb 56f 57f
10:00 8.5ft 8s 20 25 mph 1016mb 56f 58f
9:00 9ft 8s 18 22 mph 1016.4mb 56f 57f
8:00 8ft 8s 18 22 mph 1016.3mb 56f 58f
7:00 8ft 8s 27 31 mph 1015.5mb 56f 58f
6:00 8ft 8s 22 31 mph 1016.3mb 56f 58f
5:00 8ft 8s 18 20 mph 1016.5mb 57f 58f
4:00 8ft 8s 16 22 mph 1016.7mb 57f 58f
3:00 8ft 8s 20 25 mph 1016.7mb 57f 58f
2:00 8.5ft 8s 18 22 mph 1017.4mb 57f 58f
1:00 8.5ft 7s 25 27 mph 1017.3mb 58f 59f
12:00 8ft 8s 25 29 mph 1017.4mb 57f 59f
Do 08/25 11:00 7ft 7s 22 25 mph 1017.7mb 57f 59f
10:00 7ft 8s 22 27 mph 1017.7mb 57f 59f
9:00 7.5ft 8s 22 27 mph 1018.3mb 57f 59f
8:00 8ft 8s 22 27 mph 1018.2mb 57f 59f
7:00 8ft 8s 20 25 mph 1018.6mb 58f 58f
6:00 7.5ft 8s 22 27 mph 1019.1mb 58f 58f
5:00 8ft 8s 18 22 mph 1020mb 58f 58f
4:00 8ft 8s 18 22 mph 1020.6mb 58f 58f
3:00 8ft 7s 18 20 mph 1021.4mb 58f 58f
2:00 8ft 7s 18 20 mph 1022mb 58f 57f
1:00 8ft 8s 18 22 mph 1022.4mb 58f 57f
12:00 8ft 8s 18 22 mph 1022.8mb 57f 56f
11:00 8ft 8s 18 22 mph 1023.6mb 57f 56f
10:00 7.5ft 8s 20 22 mph 1023.7mb 57f 56f
9:00 7.5ft 8s 18 20 mph 1024mb 57f 57f
8:00 8ft 8s 18 25 mph 1024.1mb 57f 57f
7:00 8.5ft 7s 20 22 mph 1024mb 57f 57f
6:00 9ft 8s 18 22 mph 1023.9mb 57f 57f
5:00 9ft 7s 18
mph
1024mb 57f 57f
4:00 9ft 8s 20 27 mph 1024mb 57f 58f
3:00 10ft 8s 20 27 mph 1024.2mb 57f 58f
2:00 9ft 8s 20 25 mph 1024.3mb 57f 58f
1:00 9ft 8s 22 27 mph 1024.4mb 57f 58f
12:00 8ft 8s 20 25 mph 1024.6mb 57f 59f
Mi 08/24 11:00 7ft 8s 22 27 mph 1024.6mb 58f 59f
10:00 7.5ft 7s 22 29 mph 1024.7mb 58f 59f
9:00 7ft 8s 22
mph
1024.9mb 58f 60f
8:00 7ft 7s 20 25 mph 1024.7mb 58f 60f
7:00 6ft 7s 20 22 mph 1024.9mb 58f 59f
6:00 6ft 7s 18 22 mph 1025.4mb 58f 59f
5:00 6ft 7s 18 20 mph 1026mb 58f 58f
4:00 6.5ft 7s 16 20 mph 1026.8mb 58f 58f
3:00 6.5ft 7s 18 22 mph 1027.1mb 58f 56f
2:00 6ft 7s 18 20 mph 1027.6mb 58f 56f
1:00 6ft 7s 18 20 mph 1027.8mb 58f 57f
12:00 5.5ft 7s 16 18 mph 1028mb 57f 57f
11:00 5ft 7s 16 18 mph 1028.1mb 57f 57f
10:00 5ft 7s 16 18 mph 1028mb 57f 57f
9:00 5ft 6s 16 18 mph 1027.6mb 57f 57f
8:00 5.5ft 7s 16 20 mph 1027.4mb 57f 58f
7:00 6ft 6s 16 20 mph 1027.1mb 57f 58f
6:00 6ft 7s 18 20 mph 1026.7mb 57f 58f
5:00 6ft 6s 18 20 mph 1026.4mb 57f 58f
4:00 6.5ft 6s 16 22 mph 1026.5mb 57f 58f
3:00  -   -  20
mph
1026.2mb - 59f
2:00 6ft 6s 18 20 mph 1026.3mb 57f 59f
1:00 5.5ft 7s 18 20 mph 1026.3mb 58f 59f
12:00 5ft 6s 20 25 mph 1026.2mb 58f 60f
Di 08/23 11:00 4.5ft 6s 20 22 mph 1026.3mb 58f 60f
10:00 4.5ft 6s 20 27 mph 1026.1mb 59f 61f
9:00 3.5ft 5s 20 25 mph 1026.1mb 59f 60f
8:00 3.5ft 5s 20 25 mph 1026.1mb 59f 60f
7:00 3.5ft 5s 20 22 mph 1026mb 59f 60f
6:00 3.5ft 5s 18 22 mph 1026mb 59f 59f
5:00 3.5ft 4s 18 22 mph 1026mb 59f 59f
4:00 3.5ft 5s 18 22 mph 1026.2mb 59f 58f
3:00 3.5ft 5s 18 22 mph 1026.3mb 59f 58f
2:00 3.5ft 5s 18 22 mph 1026.5mb 59f 59f